EST,Max TemperatureF,Mean TemperatureF,Min TemperatureF,Max Dew PointF,MeanDew PointF,Min DewpointF,Max Humidity, Mean Humidity, Min Humidity, Max Sea Level PressureIn, Mean Sea Level PressureIn, Min Sea Level PressureIn, Max VisibilityMiles, Mean VisibilityMiles, Min VisibilityMiles, Max Wind SpeedMPH, Mean Wind SpeedMPH, Max Gust SpeedMPH,PrecipitationIn, CloudCover, Events, WindDirDegrees
2013-12-1,52,43,34,34,29,21,70,56,45,30.24,30.13,29.99,10,10,10,14,5,21,0.00,3,,231
2013-12-2,50,46,42,40,36,32,81,66,58,29.98,29.87,29.80,10,10,10,6,1,,0.00,8,,205
2013-12-3,56,49,42,45,42,36,85,73,64,29.91,29.87,29.82,10,10,10,9,3,17,0.00,6,,164
2013-12-4,66,58,50,50,47,45,82,67,52,30.03,29.97,29.90,10,10,10,13,5,18,0.00,3,,175
2013-12-5,68,64,60,60,54,49,88,67,63,30.07,30.02,29.97,10,10,7,12,7,17,0.01,6,Rain,206
2013-12-6,67,51,36,60,45,36,96,94,77,30.14,30.02,29.94,10,3,0,14,5,22,0.74,8,Fog-Rain-Thunderstorm,316
2013-12-7,35,33,30,35,31,29,96,95,93,30.40,30.32,30.15,10,4,0,10,5,,0.00,8,Fog-Snow,351
2013-12-8,54,40,31,48,38,30,94,91,87,30.33,30.18,30.04,10,8,2,18,7,24,0.57,8,Rain,124
2013-12-9,52,46,40,50,45,38,96,93,86,30.12,30.07,30.00,10,6,0,9,5,17,0.15,8,Fog-Rain,270
2013-12-10,40,34,27,39,28,19,96,86,66,30.26,30.10,29.95,10,6,0,13,5,25,0.24,5,Fog-Rain-Snow,293
2013-12-11,43,34,24,25,20,16,81,60,37,30.34,30.29,30.24,10,10,10,13,6,23,0.00,0,,243
2013-12-12,32,28,23,21,11,2,72,52,29,30.38,30.32,30.27,10,10,10,10,7,18,0.00,3,,295
2013-12-13,44,34,24,21,13,7,55,42,31,30.29,30.23,30.18,10,10,10,10,5,16,0.00,1,,252
2013-12-14,49,42,37,46,33,18,93,70,36,30.18,29.93,29.72,10,8,2,18,8,30,0.20,8,Rain,141
2013-12-15,45,38,30,45,31,26,96,88,78,30.05,29.91,29.72,10,8,0,14,9,30,0.02,8,Fog-Rain-Snow,285
2013-12-16,43,36,29,32,29,26,90,74,59,30.12,30.06,30.03,10,10,10,20,8,25,0.00,5,,238
2013-12-17,48,40,32,37,31,21,93,70,55,30.10,30.02,29.90,10,10,3,18,11,31,0.06,6,Rain,255
2013-12-18,40,34,27,23,20,17,72,58,45,30.21,30.18,30.10,10,10,10,14,8,23,0.00,2,Snow,245
2013-12-19,57,45,33,22,18,12,50,34,23,30.25,30.19,30.12,10,10,10,15,5,26,0.00,0,,217
2013-12-20,60,52,44,44,31,19,56,43,25,30.15,30.11,30.07,10,10,10,17,8,29,0.00,4,,228
2013-12-21,70,64,58,57,51,42,71,61,51,30.07,29.99,29.88,10,10,10,15,9,28,0.00,4,,183
2013-12-22,71,63,55,57,54,49,94,78,57,30.08,29.98,29.87,10,9,0,20,10,30,0.86,7,Rain,217
2013-12-23,55,43,31,54,40,25,95,90,76,30.24,30.15,30.00,10,6,0,15,7,22,0.38,8,Rain-Snow,304
2013-12-24,31,25,19,26,19,10,84,72,56,30.37,30.28,30.20,10,10,1,12,6,21,0.00,5,Snow,309
2013-12-25,40,28,16,18,12,1,77,51,34,30.33,30.28,30.20,10,10,10,9,3,16,0.00,0,,180
2013-12-26,41,36,30,25,19,14,67,54,38,30.33,30.26,30.19,10,10,10,17,6,25,0.00,2,,268
2013-12-27,48,37,26,22,17,13,74,46,27,30.40,30.34,30.30,10,10,10,8,3,,0.00,0,,239
2013-12-28,50,42,34,43,22,16,89,47,28,30.34,30.25,30.05,10,10,7,8,1,,0.14,2,Rain,156
2013-12-29,47,44,39,45,41,35,95,90,80,30.04,29.86,29.77,10,6,0,20,9,37,0.87,8,Rain,252
2013-12-30,40,36,32,38,33,29,96,92,82,30.12,30.05,29.95,10,7,0,13,7,18,0.01,8,Fog-Rain-Snow,275
2013-12-31,37,33,29,31,24,18,93,71,46,30.29,30.22,30.10,10,10,7,16,8,25,0.00,3,,256